createdAt,value
2017-08-11T00:00:15.211Z,0
2017-08-11T00:00:55.616Z,0
2017-08-11T00:01:36.017Z,0
2017-08-11T00:02:16.436Z,0
2017-08-11T00:02:56.816Z,0
2017-08-11T00:03:37.182Z,0
2017-08-11T00:04:17.610Z,0
2017-08-11T00:04:57.970Z,0
2017-08-11T00:05:38.403Z,0
2017-08-11T00:06:18.798Z,0
2017-08-11T00:06:59.225Z,0
2017-08-11T00:07:39.636Z,0
2017-08-11T00:08:20.041Z,0
2017-08-11T00:09:00.452Z,0
2017-08-11T00:09:40.834Z,0
2017-08-11T00:10:21.229Z,0
2017-08-11T00:11:01.617Z,0
2017-08-11T00:11:42.038Z,0
2017-08-11T00:12:22.424Z,0
2017-08-11T00:13:02.842Z,0
2017-08-11T00:13:43.260Z,0
2017-08-11T00:14:23.609Z,0
2017-08-11T00:15:03.988Z,0
2017-08-11T00:15:44.431Z,0
2017-08-11T00:16:24.816Z,0
2017-08-11T00:17:05.218Z,0
2017-08-11T00:17:45.634Z,0
2017-08-11T00:18:26.022Z,0
2017-08-11T00:19:06.467Z,0
2017-08-11T00:19:46.819Z,0
2017-08-11T00:20:27.244Z,0
2017-08-11T00:21:07.640Z,0
2017-08-11T00:21:48.051Z,0
2017-08-11T00:22:28.469Z,0
2017-08-11T00:23:08.831Z,0
2017-08-11T00:23:49.205Z,0
2017-08-11T00:24:29.623Z,0
2017-08-11T00:25:13.136Z,0
2017-08-11T00:25:53.367Z,0
2017-08-11T00:26:33.774Z,0
2017-08-11T00:27:14.209Z,0
2017-08-11T00:27:54.557Z,0
2017-08-11T00:28:34.972Z,0
2017-08-11T00:29:15.394Z,0
2017-08-11T00:29:55.843Z,0
2017-08-11T00:30:36.238Z,0
2017-08-11T00:31:16.672Z,0
2017-08-11T00:31:57.072Z,0
2017-08-11T00:32:37.492Z,0
2017-08-11T00:33:17.911Z,0
2017-08-11T00:33:58.327Z,0
2017-08-11T00:34:38.779Z,0
2017-08-11T00:35:19.173Z,0
2017-08-11T00:35:59.626Z,0
2017-08-11T00:36:39.999Z,0
2017-08-11T00:37:20.462Z,0
2017-08-11T00:38:00.798Z,0
2017-08-11T00:38:41.211Z,0
2017-08-11T00:39:21.646Z,0
2017-08-11T00:40:02.070Z,0
2017-08-11T00:40:42.419Z,0
2017-08-11T00:41:22.830Z,0
2017-08-11T00:42:03.245Z,0
2017-08-11T00:42:43.608Z,0
2017-08-11T00:43:24.016Z,0
2017-08-11T00:44:04.452Z,0
2017-08-11T00:44:44.820Z,0
2017-08-11T00:45:25.270Z,0
2017-08-11T00:46:05.629Z,0
2017-08-11T00:46:46.066Z,0
2017-08-11T00:47:26.505Z,0
2017-08-11T00:48:06.982Z,0
2017-08-11T00:48:47.314Z,0
2017-08-11T00:49:27.721Z,0
2017-08-11T00:50:08.192Z,0
2017-08-11T00:50:48.775Z,0
2017-08-11T00:51:29.079Z,0
2017-08-11T00:52:09.489Z,0
2017-08-11T00:52:49.905Z,0
2017-08-11T00:53:30.325Z,0
2017-08-11T00:54:10.729Z,0
2017-08-11T00:54:51.140Z,0
2017-08-11T00:55:31.614Z,0
2017-08-11T00:56:12.033Z,0
2017-08-11T00:56:52.489Z,0
2017-08-11T00:57:32.887Z,0
2017-08-11T00:58:13.328Z,0
2017-08-11T00:58:53.685Z,0
2017-08-11T00:59:34.108Z,0
2017-08-11T01:04:56.216Z,0
2017-08-11T01:05:54.488Z,0
2017-08-11T01:06:54.292Z,0
2017-08-11T01:07:50.182Z,0
2017-08-11T01:08:47.233Z,0
2017-08-11T01:09:42.970Z,0
2017-08-11T01:10:41.458Z,0
2017-08-11T01:11:37.217Z,0
2017-08-11T01:12:32.337Z,0
2017-08-11T01:13:31.419Z,0
2017-08-11T01:14:31.666Z,0
2017-08-11T01:15:29.092Z,0
2017-08-11T01:16:16.733Z,0
2017-08-11T01:17:01.920Z,0
2017-08-11T01:17:41.736Z,0
2017-08-11T01:18:22.719Z,0
2017-08-11T01:19:09.285Z,0
2017-08-11T01:21:13.936Z,0
2017-08-11T01:21:54.384Z,0
2017-08-11T01:22:34.756Z,0
2017-08-11T01:23:15.194Z,0
2017-08-11T01:23:55.604Z,0
2017-08-11T01:24:36.036Z,0
2017-08-11T01:25:16.525Z,0
2017-08-11T01:25:57.460Z,0
2017-08-11T01:26:37.515Z,0
2017-08-11T01:27:18.006Z,0
2017-08-11T01:27:58.412Z,0
2017-08-11T01:28:38.829Z,0
2017-08-11T01:29:19.231Z,0
2017-08-11T01:29:59.607Z,0
2017-08-11T01:30:40.022Z,0
2017-08-11T01:31:20.537Z,0
2017-08-11T01:32:00.902Z,0
2017-08-11T01:32:41.350Z,0
2017-08-11T01:33:21.738Z,0
2017-08-11T01:34:02.581Z,0
2017-08-11T01:34:44.445Z,0
2017-08-11T01:35:24.855Z,0
2017-08-11T01:36:05.211Z,0
2017-08-11T01:36:45.666Z,0
2017-08-11T01:37:26.116Z,0
2017-08-11T01:38:06.508Z,0
2017-08-11T01:38:46.996Z,0
2017-08-11T01:39:27.452Z,0
2017-08-11T01:40:07.804Z,0
2017-08-11T01:40:48.200Z,0
2017-08-11T01:41:28.613Z,0
2017-08-11T01:42:09.066Z,0
2017-08-11T01:42:49.410Z,0
2017-08-11T01:43:29.835Z,0
2017-08-11T01:44:10.223Z,0
2017-08-11T01:44:50.686Z,0
2017-08-11T01:45:31.095Z,0
2017-08-11T01:46:11.513Z,0
2017-08-11T01:46:51.863Z,0
2017-08-11T01:47:32.266Z,0
2017-08-11T01:48:12.696Z,0
2017-08-11T01:48:53.180Z,0
2017-08-11T01:49:33.553Z,0
2017-08-11T01:50:14.006Z,0
2017-08-11T01:50:54.404Z,0
2017-08-11T01:51:34.802Z,0
2017-08-11T01:52:15.177Z,0
2017-08-11T01:52:55.789Z,0
2017-08-11T01:53:36.175Z,0
2017-08-11T01:54:16.762Z,0
2017-08-11T01:54:57.364Z,0
2017-08-11T01:55:38.002Z,0
2017-08-11T01:56:18.489Z,0
2017-08-11T01:56:58.918Z,0
2017-08-11T01:57:39.288Z,0
2017-08-11T01:58:19.830Z,0
2017-08-11T01:59:00.192Z,0
2017-08-11T01:59:40.616Z,0
2017-08-11T02:00:21.053Z,0
2017-08-11T02:01:01.432Z,0
2017-08-11T02:01:41.862Z,0
2017-08-11T02:02:22.446Z,0
2017-08-11T02:03:02.864Z,0
2017-08-11T02:03:43.195Z,0
2017-08-11T02:04:23.569Z,0
2017-08-11T02:05:03.977Z,0
2017-08-11T02:05:44.449Z,0
2017-08-11T02:06:25.013Z,0
2017-08-11T02:07:05.523Z,0
2017-08-11T02:07:45.903Z,0
2017-08-11T02:08:26.721Z,0
2017-08-11T02:09:06.888Z,0
2017-08-11T02:09:47.434Z,0
2017-08-11T02:10:27.899Z,0
2017-08-11T02:11:08.356Z,0
2017-08-11T02:11:48.709Z,0
2017-08-11T02:12:29.217Z,0
2017-08-11T02:13:09.633Z,0
2017-08-11T02:13:50.025Z,0
2017-08-11T02:14:30.393Z,0
2017-08-11T02:15:10.874Z,0
2017-08-11T02:15:51.271Z,0
2017-08-11T02:16:31.943Z,0
2017-08-11T02:17:12.562Z,0
2017-08-11T02:17:52.996Z,0
2017-08-11T02:18:33.341Z,0
2017-08-11T02:19:13.782Z,0
2017-08-11T02:19:54.267Z,0
2017-08-11T02:20:34.795Z,0
2017-08-11T02:21:15.178Z,0
2017-08-11T02:21:56.343Z,0
2017-08-11T02:22:37.147Z,0
2017-08-11T02:23:17.564Z,0
2017-08-11T02:23:58.816Z,0
2017-08-11T02:24:39.316Z,0
2017-08-11T02:25:21.023Z,0
2017-08-11T02:26:01.469Z,0
2017-08-11T02:26:42.868Z,0
2017-08-11T02:27:22.890Z,0
2017-08-11T02:28:03.789Z,0
2017-08-11T02:28:45.810Z,0
2017-08-11T02:29:26.360Z,0
2017-08-11T02:30:07.120Z,0
2017-08-11T02:30:47.503Z,0
2017-08-11T02:31:28.824Z,0
2017-08-11T02:32:09.248Z,0
2017-08-11T02:32:49.669Z,0
2017-08-11T02:33:32.032Z,0
2017-08-11T02:34:12.392Z,0
2017-08-11T02:34:52.876Z,0
2017-08-11T02:35:33.382Z,0
2017-08-11T02:36:14.819Z,0
2017-08-11T02:36:56.021Z,0
2017-08-11T02:37:36.273Z,0
2017-08-11T02:38:16.802Z,0
2017-08-11T02:38:57.657Z,0
2017-08-11T02:39:39.593Z,0
2017-08-11T02:40:18.880Z,0
2017-08-11T02:41:01.796Z,0
2017-08-11T02:41:42.550Z,0
2017-08-11T02:42:23.005Z,0
2017-08-11T02:43:06.651Z,0
2017-08-11T02:43:46.743Z,0
2017-08-11T02:44:27.147Z,0
2017-08-11T02:45:07.640Z,0
2017-08-11T02:45:49.742Z,0
2017-08-11T02:46:29.981Z,0
2017-08-11T02:47:11.080Z,0
2017-08-11T02:47:51.324Z,0
2017-08-11T02:48:31.729Z,0
2017-08-11T02:49:12.158Z,0
2017-08-11T02:49:52.572Z,0
2017-08-11T02:50:33.248Z,0
2017-08-11T02:51:14.041Z,0
2017-08-11T02:51:54.522Z,0
2017-08-11T02:52:36.720Z,0
2017-08-11T02:53:17.815Z,0
2017-08-11T02:53:59.075Z,0
2017-08-11T02:54:39.543Z,0
2017-08-11T02:55:20.046Z,0
2017-08-11T02:56:01.356Z,0
2017-08-11T02:56:41.730Z,0
2017-08-11T02:57:22.550Z,0
2017-08-11T02:58:02.825Z,0
2017-08-11T02:58:43.921Z,0
2017-08-11T02:59:24.243Z,0
2017-08-11T03:00:05.011Z,0
2017-08-11T03:00:46.270Z,0
2017-08-11T03:01:27.047Z,0
2017-08-11T03:02:07.406Z,0
2017-08-11T03:02:47.844Z,0
2017-08-11T03:03:28.236Z,0
2017-08-11T03:04:08.690Z,0
2017-08-11T03:04:50.068Z,0
2017-08-11T03:05:30.879Z,0
2017-08-11T03:06:11.105Z,0
2017-08-11T03:06:51.551Z,0
2017-08-11T03:07:31.939Z,0
2017-08-11T03:08:13.820Z,0
2017-08-11T03:08:54.224Z,0
2017-08-11T03:09:34.670Z,0
2017-08-11T03:10:15.454Z,0
2017-08-11T03:10:58.841Z,0
2017-08-11T03:11:39.098Z,0
2017-08-11T03:12:19.710Z,0
2017-08-11T03:13:06.813Z,0
2017-08-11T03:13:47.744Z,0
2017-08-11T03:14:28.888Z,0
2017-08-11T03:15:09.277Z,0
2017-08-11T03:15:50.340Z,0
2017-08-11T03:16:31.029Z,0
2017-08-11T03:17:11.495Z,0
2017-08-11T03:17:51.858Z,0
2017-08-11T03:18:33.249Z,0
2017-08-11T03:19:13.586Z,0
2017-08-11T03:19:54.290Z,0
2017-08-11T03:20:34.701Z,0
2017-08-11T03:21:15.525Z,0
2017-08-11T03:21:55.800Z,0
2017-08-11T03:22:36.149Z,0
2017-08-11T03:23:16.761Z,0
2017-08-11T03:23:57.850Z,0
2017-08-11T03:24:38.663Z,0
2017-08-11T03:25:19.015Z,0
2017-08-11T03:25:59.624Z,0
2017-08-11T03:26:39.962Z,0
2017-08-11T03:27:20.373Z,0
2017-08-11T03:28:00.844Z,0
2017-08-11T03:28:41.220Z,0
2017-08-11T03:29:23.642Z,0
2017-08-11T03:30:04.191Z,0
2017-08-11T03:30:44.754Z,0
2017-08-11T03:31:25.230Z,0
2017-08-11T03:32:05.784Z,0
2017-08-11T03:32:46.216Z,0
2017-08-11T03:33:26.615Z,0
2017-08-11T03:34:07.084Z,0
2017-08-11T03:34:48.061Z,0
2017-08-11T03:35:28.450Z,0
2017-08-11T03:36:08.902Z,0
2017-08-11T03:36:49.712Z,0
2017-08-11T03:37:29.962Z,0
2017-08-11T03:38:11.334Z,0
2017-08-11T03:38:50.867Z,0
2017-08-11T03:39:33.865Z,0
2017-08-11T03:40:14.156Z,0
2017-08-11T03:40:54.657Z,0
2017-08-11T03:41:35.008Z,0
2017-08-11T03:42:15.589Z,0
2017-08-11T03:42:56.048Z,0
2017-08-11T03:43:36.519Z,0
2017-08-11T03:44:17.153Z,0
2017-08-11T03:46:49.785Z,0
2017-08-11T03:47:31.243Z,0
2017-08-11T03:48:11.622Z,0
2017-08-11T03:48:52.528Z,0
2017-08-11T03:49:33.539Z,0
2017-08-11T03:50:13.915Z,0
2017-08-11T03:50:54.784Z,0
2017-08-11T03:51:35.130Z,0
2017-08-11T03:52:15.520Z,0
2017-08-11T03:52:57.957Z,0
2017-08-11T03:53:38.316Z,0
2017-08-11T03:54:18.739Z,0
2017-08-11T03:54:59.151Z,0
2017-08-11T03:55:41.234Z,0
2017-08-11T03:56:21.107Z,0
2017-08-11T03:57:01.521Z,0
2017-08-11T03:57:41.897Z,0
2017-08-11T03:58:23.534Z,0
2017-08-11T03:59:03.925Z,0
2017-08-11T03:59:44.298Z,0
2017-08-11T04:00:24.784Z,0
2017-08-11T04:01:05.345Z,0
2017-08-11T04:01:46.438Z,0
2017-08-11T04:02:27.465Z,0
2017-08-11T04:03:08.704Z,0
2017-08-11T04:03:49.584Z,0
2017-08-11T04:04:30.029Z,0
2017-08-11T04:05:10.598Z,0
2017-08-11T04:05:50.928Z,0
2017-08-11T04:06:31.368Z,0
2017-08-11T04:07:11.828Z,0
2017-08-11T04:07:52.284Z,0
2017-08-11T04:08:32.868Z,0
2017-08-11T04:09:13.413Z,0
2017-08-11T04:09:53.771Z,0
2017-08-11T04:10:34.318Z,0
2017-08-11T04:11:21.938Z,0
2017-08-11T04:12:02.690Z,0
2017-08-11T04:12:43.332Z,0
2017-08-11T04:13:23.830Z,0
2017-08-11T04:14:04.817Z,0
2017-08-11T04:14:45.219Z,0
2017-08-11T04:15:25.777Z,0
2017-08-11T04:20:30.105Z,0
2017-08-11T04:21:09.939Z,0
2017-08-11T04:21:50.857Z,0
2017-08-11T04:22:31.527Z,0
2017-08-11T04:23:12.212Z,0
2017-08-11T04:23:53.582Z,0
2017-08-11T04:24:34.155Z,0
2017-08-11T04:25:14.644Z,0
2017-08-11T04:25:55.307Z,0
2017-08-11T04:26:37.078Z,0
2017-08-11T04:27:17.583Z,0
2017-08-11T04:27:58.038Z,0
2017-08-11T04:28:40.156Z,0
2017-08-11T04:29:21.344Z,0
2017-08-11T04:30:02.570Z,0
2017-08-11T04:30:43.112Z,0
2017-08-11T04:31:24.700Z,0
2017-08-11T04:32:04.935Z,0
2017-08-11T04:32:46.340Z,0
2017-08-11T04:33:27.095Z,0
2017-08-11T04:34:08.265Z,0
2017-08-11T04:34:50.327Z,0
2017-08-11T04:35:33.229Z,0
2017-08-11T04:36:13.707Z,0
2017-08-11T04:36:54.657Z,0
2017-08-11T04:37:35.315Z,0
2017-08-11T04:38:15.361Z,0
2017-08-11T04:38:58.448Z,0
2017-08-11T04:39:39.698Z,0
2017-08-11T04:40:20.343Z,0
2017-08-11T04:41:00.692Z,0
2017-08-11T04:41:43.886Z,0
2017-08-11T04:42:24.409Z,0
2017-08-11T04:43:05.583Z,0
2017-08-11T04:43:45.894Z,0
2017-08-11T04:44:26.388Z,0
2017-08-11T04:45:07.192Z,5
2017-08-11T04:45:47.589Z,5
2017-08-11T04:46:28.074Z,5
2017-08-11T04:47:09.784Z,5
2017-08-11T04:47:50.863Z,5
2017-08-11T04:48:31.398Z,5
2017-08-11T04:49:17.090Z,5
2017-08-11T04:49:56.498Z,5
2017-08-11T04:50:36.936Z,5
2017-08-11T04:51:17.465Z,5
2017-08-11T04:51:58.309Z,5
2017-08-11T04:52:38.565Z,5
2017-08-11T04:55:10.472Z,5
2017-08-11T04:56:08.675Z,5
2017-08-11T04:57:03.847Z,5
2017-08-11T04:57:56.763Z,5
2017-08-11T04:58:37.932Z,5
2017-08-11T04:59:19.736Z,5
2017-08-11T05:00:01.118Z,5
2017-08-11T05:00:41.506Z,5
2017-08-11T05:01:22.018Z,5
2017-08-11T05:02:03.552Z,5
2017-08-11T05:02:44.546Z,5
2017-08-11T05:03:25.234Z,5
2017-08-11T05:04:05.706Z,5
2017-08-11T05:04:46.086Z,5
2017-08-11T05:05:27.286Z,5
2017-08-11T05:06:08.772Z,5
2017-08-11T05:06:49.251Z,5
2017-08-11T05:07:30.084Z,5
2017-08-11T05:08:13.665Z,5
2017-08-11T05:08:54.587Z,5
2017-08-11T05:09:37.471Z,5
2017-08-11T05:10:17.912Z,5
2017-08-11T05:10:58.387Z,5
2017-08-11T05:11:39.170Z,5
2017-08-11T05:12:20.014Z,5
2017-08-11T05:13:00.466Z,5
2017-08-11T05:13:40.845Z,5
2017-08-11T05:14:24.217Z,5
2017-08-11T05:15:04.788Z,5
2017-08-11T05:15:47.196Z,5
2017-08-11T05:16:27.927Z,5
2017-08-11T05:17:08.325Z,5
2017-08-11T05:17:48.823Z,10
2017-08-11T05:18:29.642Z,10
2017-08-11T05:19:10.539Z,10
2017-08-11T05:19:50.908Z,10
2017-08-11T05:20:31.349Z,10
2017-08-11T05:21:11.743Z,10
2017-08-11T05:21:52.989Z,10
2017-08-11T05:22:33.713Z,10
2017-08-11T05:23:14.262Z,10
2017-08-11T05:23:54.736Z,10
2017-08-11T05:24:35.359Z,10
2017-08-11T05:25:18.582Z,10
2017-08-11T05:26:01.289Z,15
2017-08-11T05:26:42.114Z,15
2017-08-11T05:27:23.171Z,15
2017-08-11T05:28:03.469Z,15
2017-08-11T05:28:51.353Z,15
2017-08-11T05:29:33.241Z,20
2017-08-11T05:30:13.800Z,20
2017-08-11T05:30:55.355Z,25
2017-08-11T05:31:36.794Z,20
2017-08-11T05:32:19.038Z,25
2017-08-11T05:33:00.863Z,25
2017-08-11T05:33:42.082Z,20
2017-08-11T05:34:23.352Z,25
2017-08-11T05:35:04.002Z,25
2017-08-11T05:35:45.882Z,20
2017-08-11T05:36:27.217Z,20
2017-08-11T05:37:31.495Z,20
2017-08-11T05:38:25.800Z,20
2017-08-11T05:39:31.180Z,15
2017-08-11T05:40:34.078Z,15
2017-08-11T05:43:06.456Z,20
2017-08-11T05:43:47.102Z,15
2017-08-11T05:44:27.661Z,20
2017-08-11T05:45:08.173Z,20
2017-08-11T05:45:48.645Z,20
2017-08-11T05:46:29.253Z,20
2017-08-11T05:51:33.945Z,15
2017-08-11T05:52:32.877Z,15
2017-08-11T05:53:32.383Z,10
2017-08-11T05:54:41.223Z,10
2017-08-11T05:55:28.537Z,10
2017-08-11T05:56:09.262Z,5
2017-08-11T05:56:49.433Z,5
2017-08-11T05:57:29.794Z,10
2017-08-11T05:58:10.242Z,15
2017-08-11T05:58:50.584Z,15
2017-08-11T05:59:30.986Z,15
2017-08-11T06:00:11.544Z,20
2017-08-11T06:00:52.091Z,20
2017-08-11T06:01:32.645Z,25
2017-08-11T06:02:13.314Z,25
2017-08-11T06:02:53.636Z,30
2017-08-11T06:03:34.056Z,35
2017-08-11T06:04:14.841Z,35
2017-08-11T06:04:56.955Z,45
2017-08-11T06:05:36.798Z,45
2017-08-11T06:06:17.290Z,55
2017-08-11T06:06:58.093Z,55
2017-08-11T06:07:38.572Z,65
2017-08-11T06:08:18.969Z,65
2017-08-11T06:08:59.416Z,65
2017-08-11T06:09:39.859Z,60
2017-08-11T06:10:20.242Z,65
2017-08-11T06:11:00.720Z,60
2017-08-11T06:11:41.281Z,65
2017-08-11T06:12:21.602Z,75
2017-08-11T06:13:02.055Z,80
2017-08-11T06:13:42.530Z,70
2017-08-11T06:14:22.915Z,75
2017-08-11T06:15:03.425Z,80
2017-08-11T06:15:43.897Z,80
2017-08-11T06:16:24.362Z,80
2017-08-11T06:17:04.769Z,80
2017-08-11T06:17:45.263Z,85
2017-08-11T06:18:29.716Z,85
2017-08-11T06:19:09.336Z,85
2017-08-11T06:19:49.737Z,80
2017-08-11T06:20:30.089Z,70
2017-08-11T06:21:10.658Z,65
2017-08-11T06:21:51.121Z,70
2017-08-11T06:22:31.534Z,70
2017-08-11T06:23:12.087Z,75
2017-08-11T06:23:52.557Z,70
2017-08-11T06:24:32.999Z,70
2017-08-11T06:25:13.609Z,65
2017-08-11T06:25:53.979Z,75
2017-08-11T06:26:34.447Z,85
2017-08-11T06:27:14.918Z,85
2017-08-11T06:27:55.357Z,90
2017-08-11T06:28:35.799Z,75
2017-08-11T06:29:16.229Z,60
2017-08-11T06:29:56.835Z,65
2017-08-11T06:30:37.332Z,65
2017-08-11T06:31:17.716Z,65
2017-08-11T06:31:58.245Z,60
2017-08-11T06:32:40.093Z,60
2017-08-11T06:33:22.435Z,75
2017-08-11T06:34:03.159Z,80
2017-08-11T06:34:43.526Z,85
2017-08-11T06:35:24.064Z,80
2017-08-11T06:36:04.532Z,80
2017-08-11T06:36:44.908Z,70
2017-08-11T06:37:25.374Z,60
2017-08-11T06:38:05.981Z,50
2017-08-11T06:38:46.626Z,50
2017-08-11T06:39:26.734Z,50
2017-08-11T06:40:07.544Z,55
2017-08-11T06:40:47.882Z,50
2017-08-11T06:41:28.360Z,40
2017-08-11T06:42:08.770Z,35
2017-08-11T06:42:49.242Z,30
2017-08-11T06:43:29.578Z,25
2017-08-11T06:44:09.946Z,20
2017-08-11T06:44:50.486Z,20
2017-08-11T06:45:31.567Z,20
2017-08-11T06:46:12.050Z,20
2017-08-11T06:46:52.538Z,20
2017-08-11T06:47:32.924Z,20
2017-08-11T06:48:13.358Z,20
2017-08-11T06:48:53.842Z,20
2017-08-11T06:49:34.203Z,20
2017-08-11T06:50:14.894Z,20
2017-08-11T06:50:55.002Z,20
2017-08-11T06:51:35.465Z,25
2017-08-11T06:52:16.838Z,25
2017-08-11T06:52:57.260Z,25
2017-08-11T06:53:37.659Z,25
2017-08-11T06:54:18.998Z,25
2017-08-11T06:54:59.625Z,30
2017-08-11T06:55:40.644Z,30
2017-08-11T06:56:21.126Z,35
2017-08-11T06:57:01.516Z,45
2017-08-11T06:57:42.008Z,60
2017-08-11T06:58:22.534Z,75
2017-08-11T06:59:02.982Z,80
2017-08-11T06:59:43.329Z,85
2017-08-11T07:00:23.698Z,85
2017-08-11T07:01:04.068Z,85
2017-08-11T07:01:44.512Z,85
2017-08-11T07:02:24.896Z,95
2017-08-11T07:03:05.261Z,95
2017-08-11T07:03:45.780Z,90
2017-08-11T07:04:26.262Z,95
2017-08-11T07:05:06.529Z,90
2017-08-11T07:05:46.950Z,95
2017-08-11T07:06:27.283Z,100
2017-08-11T07:07:07.692Z,100
2017-08-11T07:07:48.097Z,90
2017-08-11T07:08:28.594Z,85
2017-08-11T07:09:08.981Z,85
2017-08-11T07:09:49.422Z,80
2017-08-11T07:10:29.877Z,80
2017-08-11T07:11:10.327Z,80
2017-08-11T07:11:50.743Z,85
2017-08-11T07:12:31.093Z,95
2017-08-11T07:13:11.551Z,95
2017-08-11T07:13:51.907Z,95
2017-08-11T07:14:32.377Z,95
2017-08-11T07:15:12.785Z,95
2017-08-11T07:15:53.153Z,90
2017-08-11T07:16:33.589Z,90
2017-08-11T07:17:13.958Z,90
2017-08-11T07:17:54.392Z,85
2017-08-11T07:18:34.815Z,80
2017-08-11T07:19:15.221Z,80
2017-08-11T07:19:55.652Z,80
2017-08-11T07:20:36.045Z,85
2017-08-11T07:21:16.510Z,85
2017-08-11T07:21:56.971Z,90
2017-08-11T07:22:37.515Z,90
2017-08-11T07:25:05.641Z,95
2017-08-11T07:25:46.040Z,105
2017-08-11T07:26:26.373Z,115
2017-08-11T07:27:06.813Z,105
2017-08-11T07:27:47.170Z,95
2017-08-11T07:28:27.590Z,90
2017-08-11T07:29:07.956Z,90
2017-08-11T07:29:48.479Z,90
2017-08-11T07:32:03.166Z,75
2017-08-11T07:34:23.302Z,95
2017-08-11T07:35:03.803Z,95
2017-08-11T07:35:44.270Z,90
2017-08-11T07:36:24.903Z,90
2017-08-11T07:37:05.368Z,90
2017-08-11T07:37:45.867Z,90
2017-08-11T07:38:26.273Z,100
2017-08-11T07:39:06.650Z,110
2017-08-11T07:39:47.073Z,110
2017-08-11T07:42:00.977Z,110
2017-08-11T07:42:41.423Z,105
2017-08-11T07:44:55.976Z,110
2017-08-11T07:45:36.312Z,115
2017-08-11T07:46:16.860Z,135
2017-08-11T07:46:57.261Z,150
2017-08-11T07:47:37.644Z,175
2017-08-11T07:48:18.776Z,160
2017-08-11T07:49:00.540Z,140
2017-08-11T07:49:40.942Z,125
2017-08-11T07:50:21.317Z,110
2017-08-11T07:51:01.671Z,130
2017-08-11T07:51:42.088Z,125
2017-08-11T07:55:10.270Z,230
2017-08-11T07:55:50.813Z,250
2017-08-11T07:56:31.213Z,295
2017-08-11T07:57:11.604Z,305
2017-08-11T07:57:52.124Z,295
2017-08-11T07:58:32.414Z,290
2017-08-11T07:59:12.819Z,290
2017-08-11T07:59:53.190Z,285
2017-08-11T08:02:13.594Z,250
2017-08-11T08:02:54.116Z,250
2017-08-11T08:03:34.458Z,255
2017-08-11T08:04:15.090Z,250
2017-08-11T08:04:55.949Z,245
2017-08-11T08:05:36.578Z,235
2017-08-11T08:06:17.188Z,240
2017-08-11T08:06:57.563Z,245
2017-08-11T08:07:37.969Z,250
2017-08-11T08:08:18.426Z,235
2017-08-11T08:08:58.772Z,195
2017-08-11T08:09:39.237Z,180
2017-08-11T08:10:21.637Z,165
2017-08-11T08:11:01.812Z,155
2017-08-11T08:11:42.209Z,160
2017-08-11T08:12:22.661Z,145
2017-08-11T08:13:03.060Z,135
2017-08-11T08:13:43.521Z,115
2017-08-11T08:14:23.948Z,105
2017-08-11T08:15:04.417Z,110
2017-08-11T08:15:44.889Z,115
2017-08-11T08:16:25.293Z,140
2017-08-11T08:17:05.700Z,150
2017-08-11T08:25:56.070Z,180
2017-08-11T08:26:36.513Z,215
2017-08-11T08:27:16.879Z,230
2017-08-11T08:27:57.261Z,215
2017-08-11T08:28:37.656Z,235
2017-08-11T08:29:18.102Z,250
2017-08-11T08:29:58.598Z,235
2017-08-11T08:30:40.134Z,250
2017-08-11T08:31:20.524Z,265
2017-08-11T08:32:01.514Z,270
2017-08-11T08:32:41.358Z,300
2017-08-11T08:33:21.828Z,350
2017-08-11T08:34:02.239Z,335
2017-08-11T08:34:42.585Z,380
2017-08-11T08:35:22.976Z,390
2017-08-11T08:36:03.426Z,405
2017-08-11T08:36:43.877Z,360
2017-08-11T08:37:24.311Z,305
2017-08-11T08:38:04.717Z,230
2017-08-11T08:38:45.278Z,145
2017-08-11T08:39:27.480Z,120
2017-08-11T08:40:08.653Z,125
2017-08-11T08:40:49.069Z,155
2017-08-11T08:41:29.588Z,170
2017-08-11T08:42:10.979Z,175
2017-08-11T08:42:50.793Z,190
2017-08-11T08:43:32.010Z,150
2017-08-11T08:44:13.352Z,110
2017-08-11T08:44:54.292Z,115
2017-08-11T08:45:35.833Z,130
2017-08-11T08:46:16.199Z,155
2017-08-11T08:46:56.737Z,195
2017-08-11T08:47:37.464Z,240
2017-08-11T08:48:17.897Z,285
2017-08-11T08:48:58.266Z,345
2017-08-11T08:49:38.715Z,375
2017-08-11T08:50:19.263Z,390
2017-08-11T08:50:59.781Z,405
2017-08-11T08:51:40.178Z,385
2017-08-11T08:52:20.538Z,415
2017-08-11T08:53:01.120Z,420
2017-08-11T08:53:41.478Z,435
2017-08-11T08:54:22.782Z,415
2017-08-11T08:55:03.336Z,390
2017-08-11T08:55:43.688Z,360
2017-08-11T08:56:24.124Z,305
2017-08-11T08:57:04.494Z,280
2017-08-11T08:57:45.025Z,260
2017-08-11T08:58:25.768Z,270
2017-08-11T08:59:06.614Z,340
2017-08-11T08:59:47.353Z,325
2017-08-11T09:00:27.955Z,290
2017-08-11T09:01:08.385Z,305
2017-08-11T09:01:48.860Z,400
2017-08-11T09:02:29.230Z,440
2017-08-11T09:04:59.114Z,275
2017-08-11T09:05:39.623Z,260
2017-08-11T09:06:19.991Z,245
2017-08-11T09:07:00.401Z,250
2017-08-11T09:07:40.777Z,245
2017-08-11T09:08:21.181Z,220
2017-08-11T09:09:01.621Z,205
2017-08-11T09:09:42.004Z,205
2017-08-11T09:10:22.420Z,205
2017-08-11T09:11:02.833Z,205
2017-08-11T09:11:43.373Z,205
2017-08-11T09:12:23.762Z,205
2017-08-11T09:13:04.342Z,205
2017-08-11T09:13:44.670Z,200
2017-08-11T09:14:25.863Z,185
2017-08-11T09:15:05.708Z,170
2017-08-11T09:15:46.107Z,160
2017-08-11T09:16:26.509Z,150
2017-08-11T09:17:07.195Z,130
2017-08-11T09:17:47.682Z,110
2017-08-11T09:18:28.057Z,110
2017-08-11T09:19:08.500Z,115
2017-08-11T09:19:48.972Z,125
2017-08-11T09:20:29.678Z,135
2017-08-11T09:21:09.966Z,145
2017-08-11T09:21:50.407Z,160
2017-08-11T09:22:30.978Z,165
2017-08-11T09:23:11.467Z,170
2017-08-11T09:23:52.023Z,160
2017-08-11T09:24:32.473Z,160
2017-08-11T09:25:13.056Z,155
2017-08-11T09:25:53.688Z,145
2017-08-11T09:26:35.027Z,135
2017-08-11T09:27:15.525Z,130
2017-08-11T09:27:56.003Z,115
2017-08-11T09:28:36.432Z,105
2017-08-11T09:29:17.506Z,100
2017-08-11T09:29:57.956Z,95
2017-08-11T09:30:38.698Z,85
2017-08-11T09:31:19.058Z,75
2017-08-11T09:31:59.438Z,70
2017-08-11T09:32:39.851Z,70
2017-08-11T09:33:20.295Z,70
2017-08-11T09:34:00.776Z,70
2017-08-11T09:34:41.192Z,75
2017-08-11T09:35:21.641Z,80
2017-08-11T09:36:03.209Z,85
2017-08-11T09:36:43.997Z,95
2017-08-11T09:37:25.019Z,105
2017-08-11T09:38:06.471Z,120
2017-08-11T09:38:47.758Z,120
2017-08-11T09:39:28.281Z,110
2017-08-11T09:40:08.855Z,105
2017-08-11T09:40:49.518Z,110
2017-08-11T09:41:29.927Z,125
2017-08-11T09:42:10.697Z,125
2017-08-11T09:42:51.180Z,130
2017-08-11T09:43:32.437Z,130
2017-08-11T09:44:12.769Z,120
2017-08-11T09:44:53.432Z,120
2017-08-11T09:45:33.820Z,140
2017-08-11T09:46:14.254Z,165
2017-08-11T09:46:54.583Z,200
2017-08-11T09:47:35.237Z,230
2017-08-11T09:48:16.642Z,270
2017-08-11T09:48:57.347Z,320
2017-08-11T09:49:39.812Z,385
2017-08-11T09:50:19.610Z,455
2017-08-11T09:51:00.158Z,495
2017-08-11T09:51:41.521Z,490
2017-08-11T09:52:21.942Z,480
2017-08-11T09:53:02.413Z,490
2017-08-11T09:53:43.197Z,495
2017-08-11T09:54:23.739Z,485
2017-08-11T09:55:04.258Z,500
2017-08-11T09:55:45.140Z,500
2017-08-11T09:56:25.560Z,495
2017-08-11T09:57:06.556Z,465
2017-08-11T09:57:46.985Z,465
2017-08-11T09:58:27.455Z,470
2017-08-11T09:59:07.983Z,455
2017-08-11T09:59:48.456Z,450
2017-08-11T10:00:28.950Z,440
2017-08-11T10:01:09.420Z,425
2017-08-11T10:01:49.962Z,415
2017-08-11T10:02:30.462Z,395
2017-08-11T10:03:10.903Z,390
2017-08-11T10:03:51.363Z,400
2017-08-11T10:04:32.554Z,400
2017-08-11T10:05:13.129Z,415
2017-08-11T10:05:53.509Z,440
2017-08-11T10:06:33.964Z,435
2017-08-11T10:07:14.430Z,445
2017-08-11T10:07:54.819Z,455
2017-08-11T10:08:35.221Z,470
2017-08-11T10:09:15.661Z,470
2017-08-11T10:09:56.177Z,465
2017-08-11T10:10:36.593Z,445
2017-08-11T10:11:17.226Z,415
2017-08-11T10:11:57.625Z,430
2017-08-11T10:12:38.242Z,445
2017-08-11T10:13:18.635Z,440
2017-08-11T10:13:59.016Z,435
2017-08-11T10:14:39.432Z,420
2017-08-11T10:15:19.896Z,415
2017-08-11T10:16:00.342Z,430
2017-08-11T10:16:40.648Z,440
2017-08-11T10:17:21.206Z,440
2017-08-11T10:18:01.619Z,445
2017-08-11T10:18:42.146Z,445
2017-08-11T10:19:22.490Z,455
2017-08-11T10:20:02.872Z,475
2017-08-11T10:20:43.420Z,485
2017-08-11T10:21:23.766Z,470
2017-08-11T10:22:04.201Z,475
2017-08-11T10:22:44.716Z,500
2017-08-11T10:23:25.124Z,515
2017-08-11T10:24:05.620Z,500
2017-08-11T10:24:45.973Z,485
2017-08-11T10:25:26.392Z,470
2017-08-11T10:26:06.792Z,435
2017-08-11T10:26:47.244Z,425
2017-08-11T10:27:27.659Z,430
2017-08-11T10:28:08.185Z,450
2017-08-11T10:28:48.599Z,470
2017-08-11T10:29:28.965Z,500
2017-08-11T10:30:09.415Z,540
2017-08-11T10:30:49.890Z,555
2017-08-11T10:31:30.693Z,570
2017-08-11T10:32:11.827Z,595
2017-08-11T10:32:52.858Z,595
2017-08-11T10:33:33.218Z,540
2017-08-11T10:34:13.679Z,500
2017-08-11T10:34:54.084Z,525